KPVJ

Details ICAO KPVJ
Name PAULS VALLEY MUNI
Region United States
Timezone America/Chicago (UTC-5.0)
Plans Departing 1
Arriving 0
Stats Elevation 968 ft / 295 m (AMSL)
Location 34.709932° -97.223189°
Runways 2
Magnetic Variation 3.492° E
Sunrise 2018-05-27 11:20:13 UTC / 2018-05-27 06:20:13 Local
Sunset 2018-05-28 01:34:49 UTC / 2018-05-27 20:34:49 Local
Advertisement - Login to hide

Runways

ID Width Length Bearing (true) Bearing (mag) Surface Threshold Offset Overrun Length
12 150 ft / 46 m 3,500 ft / 1,067 m 135.20° 131.71° Concrete 0 ft / 0 m 0 ft / 0 m
17 100 ft / 30 m 5,012 ft / 1,528 m 180.00° 176.51° Concrete 0 ft / 0 m 0 ft / 0 m
30 150 ft / 46 m 3,500 ft / 1,067 m 315.20° 311.71° Concrete 0 ft / 0 m 0 ft / 0 m
35 100 ft / 30 m 5,012 ft / 1,528 m 0.00° 356.51° Concrete 0 ft / 0 m 0 ft / 0 m

Map

Weather


0- 5 10 15 20 25 30 35+ Temperature / ° C

Clouds and Precipitation
Forecast for 2018-05-27 18:00 UTC. Updated an hour ago

Ground ~20,000 ft ~40,000 ft Winds

METAR

KPVJ 271815Z AUTO 13006KT 10SM CLR 32/23 A2986 RMK AO2 T03180228

TAF

Not found

Frequencies

Recorded 118.67 MHz AWOS 3
Unicom 122.80 MHz CTAF/UNICOM
Warning: Do not use this data for real-world aviation or navigation. No guarantee of current accuracy is given.